createdAt,value
2022-11-27T00:01:28.911Z,19.60
2022-11-27T00:03:56.819Z,19.62
2022-11-27T00:06:25.322Z,19.60
2022-11-27T00:08:53.004Z,19.59
2022-11-27T00:11:21.637Z,19.59
2022-11-27T00:13:50.809Z,19.59
2022-11-27T00:16:18.633Z,19.59
2022-11-27T00:18:46.413Z,19.58
2022-11-27T00:21:15.327Z,19.59
2022-11-27T00:23:42.957Z,19.58
2022-11-27T00:26:10.661Z,19.57
2022-11-27T00:28:38.779Z,19.57
2022-11-27T00:31:09.747Z,19.57
2022-11-27T00:33:37.664Z,19.57
2022-11-27T00:36:05.776Z,19.56
2022-11-27T00:38:37.403Z,19.57
2022-11-27T00:41:07.476Z,19.57
2022-11-27T00:43:43.635Z,19.55
2022-11-27T00:46:13.614Z,19.56
2022-11-27T00:48:41.420Z,19.55
2022-11-27T00:51:10.060Z,19.55
2022-11-27T00:53:37.771Z,19.56
2022-11-27T00:56:05.950Z,19.54
2022-11-27T00:58:33.670Z,19.53
2022-11-27T01:01:02.341Z,19.54
2022-11-27T01:03:31.529Z,19.54
2022-11-27T01:06:03.101Z,19.53
2022-11-27T01:08:30.757Z,19.53
2022-11-27T01:10:58.782Z,19.53
2022-11-27T01:13:27.042Z,19.53
2022-11-27T01:15:59.856Z,19.51
2022-11-27T01:18:27.536Z,19.50
2022-11-27T01:20:56.688Z,19.50
2022-11-27T01:23:24.483Z,19.51
2022-11-27T01:25:53.341Z,19.50
2022-11-27T01:28:21.142Z,19.50
2022-11-27T01:30:48.862Z,19.50
2022-11-27T01:33:16.649Z,19.50
2022-11-27T01:35:44.276Z,19.49
2022-11-27T01:38:13.261Z,19.48
2022-11-27T01:40:40.875Z,19.48
2022-11-27T01:43:11.944Z,19.47
2022-11-27T01:45:39.672Z,19.48
2022-11-27T01:48:07.313Z,19.48
2022-11-27T01:50:37.159Z,19.46
2022-11-27T01:53:09.360Z,19.46
2022-11-27T01:55:40.950Z,19.46
2022-11-27T01:58:09.673Z,19.46
2022-11-27T02:00:37.313Z,19.45
2022-11-27T02:03:05.161Z,19.45
2022-11-27T02:05:33.522Z,19.45
2022-11-27T02:08:03.554Z,19.45
2022-11-27T02:10:39.733Z,19.44
2022-11-27T02:13:10.109Z,19.44
2022-11-27T02:15:44.055Z,19.43
2022-11-27T02:18:15.565Z,19.42
2022-11-27T02:20:49.643Z,19.43
2022-11-27T02:23:30.890Z,19.42
2022-11-27T02:26:19.512Z,19.42
2022-11-27T02:29:03.844Z,19.42
2022-11-27T02:31:36.682Z,19.41
2022-11-27T02:34:09.132Z,19.41
2022-11-27T02:36:37.866Z,19.40
2022-11-27T02:39:09.102Z,19.40
2022-11-27T02:41:40.400Z,19.39
2022-11-27T02:44:12.793Z,19.39
2022-11-27T02:46:41.398Z,19.38
2022-11-27T02:49:12.379Z,19.37
2022-11-27T02:51:50.713Z,19.37
2022-11-27T02:54:27.756Z,19.36
2022-11-27T02:56:59.186Z,19.37
2022-11-27T02:59:49.264Z,19.36
2022-11-27T03:02:19.931Z,19.36
2022-11-27T03:04:50.845Z,19.36
2022-11-27T03:07:23.842Z,19.35
2022-11-27T03:10:00.116Z,19.35
2022-11-27T03:12:36.533Z,19.35
2022-11-27T03:15:13.113Z,19.34
2022-11-27T03:17:51.545Z,19.34
2022-11-27T03:20:27.201Z,19.34
2022-11-27T03:23:02.465Z,19.34
2022-11-27T03:25:31.500Z,19.32
2022-11-27T03:28:00.405Z,19.32
2022-11-27T03:30:38.168Z,19.32
2022-11-27T03:33:16.756Z,19.31
2022-11-27T03:35:52.498Z,19.31
2022-11-27T03:38:24.183Z,19.30
2022-11-27T03:40:59.476Z,19.30
2022-11-27T03:43:37.283Z,19.30
2022-11-27T03:46:20.059Z,19.30
2022-11-27T03:49:02.992Z,19.29
2022-11-27T03:51:46.315Z,19.29
2022-11-27T03:54:21.694Z,19.28
2022-11-27T03:56:55.474Z,19.29
2022-11-27T03:59:31.938Z,19.28
2022-11-27T04:02:09.687Z,19.27
2022-11-27T04:04:40.909Z,19.27
2022-11-27T04:07:27.849Z,19.28
2022-11-27T04:10:03.469Z,19.27
2022-11-27T04:12:35.914Z,19.26
2022-11-27T04:15:21.867Z,19.26
2022-11-27T04:18:01.698Z,19.25
2022-11-27T04:20:32.731Z,19.26
2022-11-27T04:23:06.556Z,19.26
2022-11-27T04:25:46.735Z,19.26
2022-11-27T04:28:24.487Z,19.26
2022-11-27T04:30:56.046Z,19.25
2022-11-27T04:33:37.142Z,19.26
2022-11-27T04:36:07.263Z,19.26
2022-11-27T04:38:41.638Z,19.25
2022-11-27T04:41:16.197Z,19.26
2022-11-27T04:43:55.871Z,19.25
2022-11-27T04:46:29.670Z,19.26
2022-11-27T04:49:07.723Z,19.26
2022-11-27T04:51:44.464Z,19.25
2022-11-27T04:54:17.846Z,19.25
2022-11-27T04:56:52.332Z,19.25
2022-11-27T04:59:25.053Z,19.26
2022-11-27T05:01:53.220Z,19.25
2022-11-27T05:04:28.257Z,19.25
2022-11-27T05:07:07.016Z,19.26
2022-11-27T05:09:45.384Z,19.24
2022-11-27T05:12:26.876Z,19.25
2022-11-27T05:15:03.147Z,19.26
2022-11-27T05:17:33.546Z,19.25
2022-11-27T05:20:04.405Z,19.24
2022-11-27T05:22:36.779Z,19.24
2022-11-27T05:25:05.754Z,19.26
2022-11-27T05:27:33.916Z,19.25
2022-11-27T05:30:11.437Z,19.24
2022-11-27T05:32:46.602Z,19.24
2022-11-27T05:35:25.393Z,19.25
2022-11-27T05:37:58.783Z,19.24
2022-11-27T05:40:39.356Z,19.25
2022-11-27T05:43:16.939Z,19.24
2022-11-27T05:45:59.140Z,19.24
2022-11-27T05:48:36.176Z,19.25
2022-11-27T05:51:18.136Z,19.25
2022-11-27T05:53:49.234Z,19.25
2022-11-27T05:56:39.807Z,19.25
2022-11-27T05:59:18.542Z,19.24
2022-11-27T06:01:55.806Z,19.24
2022-11-27T06:04:41.587Z,19.25
2022-11-27T06:07:19.236Z,19.24
2022-11-27T06:10:05.952Z,19.24
2022-11-27T06:12:41.063Z,19.25
2022-11-27T06:15:14.902Z,19.24
2022-11-27T06:17:45.990Z,19.24
2022-11-27T06:20:22.629Z,19.23
2022-11-27T06:22:59.624Z,19.23
2022-11-27T06:25:50.413Z,19.22
2022-11-27T06:28:25.786Z,19.23
2022-11-27T06:31:06.384Z,19.22
2022-11-27T06:33:42.005Z,19.23
2022-11-27T06:36:22.803Z,19.22
2022-11-27T06:39:33.264Z,19.21
2022-11-27T06:42:09.156Z,19.22
2022-11-27T06:44:44.739Z,19.21
2022-11-27T06:47:21.288Z,19.22
2022-11-27T06:49:53.457Z,19.21
2022-11-27T06:52:40.391Z,19.22
2022-11-27T06:55:20.085Z,19.21
2022-11-27T06:57:57.374Z,19.22
2022-11-27T07:00:30.046Z,19.21
2022-11-27T07:03:11.787Z,19.21
2022-11-27T07:05:46.051Z,19.21
2022-11-27T07:08:25.073Z,19.20
2022-11-27T07:11:40.822Z,19.20
2022-11-27T07:14:58.852Z,19.19
2022-11-27T07:17:31.964Z,19.18
2022-11-27T07:20:08.541Z,19.19
2022-11-27T07:23:09.803Z,19.19
2022-11-27T07:25:56.834Z,19.18
2022-11-27T07:28:31.010Z,19.19
2022-11-27T07:31:16.699Z,19.18
2022-11-27T07:33:55.747Z,19.19
2022-11-27T07:36:27.873Z,19.19
2022-11-27T07:38:55.794Z,19.18
2022-11-27T07:41:40.009Z,19.18
2022-11-27T07:44:23.879Z,19.18
2022-11-27T07:47:02.125Z,18.92
2022-11-27T07:49:37.533Z,17.99
2022-11-27T07:52:05.473Z,17.28
2022-11-27T07:54:46.768Z,16.80
2022-11-27T07:57:18.707Z,16.35
2022-11-27T08:00:11.083Z,16.71
2022-11-27T08:02:38.924Z,17.12
2022-11-27T08:05:12.393Z,17.39
2022-11-27T08:07:40.996Z,17.59
2022-11-27T08:10:09.314Z,17.74
2022-11-27T08:12:37.039Z,17.88
2022-11-27T08:15:33.159Z,17.97
2022-11-27T08:18:00.824Z,18.07
2022-11-27T08:20:28.647Z,18.14
2022-11-27T08:23:02.705Z,18.19
2022-11-27T08:25:30.967Z,18.25
2022-11-27T08:27:58.689Z,18.29
2022-11-27T08:30:26.376Z,18.35
2022-11-27T08:32:55.520Z,18.39
2022-11-27T08:35:23.749Z,18.45
2022-11-27T08:38:10.608Z,18.54
2022-11-27T08:40:39.583Z,18.55
2022-11-27T08:43:07.786Z,18.55
2022-11-27T08:45:36.211Z,18.56
2022-11-27T08:48:05.836Z,18.57
2022-11-27T08:50:33.862Z,18.59
2022-11-27T08:53:01.616Z,18.60
2022-11-27T08:55:29.244Z,18.60
2022-11-27T08:57:57.070Z,18.64
2022-11-27T09:00:27.962Z,18.65
2022-11-27T09:02:55.978Z,18.67
2022-11-27T09:05:25.212Z,18.71
2022-11-27T09:07:52.903Z,18.75
2022-11-27T09:10:20.552Z,18.82
2022-11-27T09:12:49.316Z,18.87
2022-11-27T09:15:17.296Z,18.93
2022-11-27T09:17:44.976Z,18.99
2022-11-27T09:20:14.275Z,19.06
2022-11-27T09:22:43.444Z,19.13
2022-11-27T09:25:11.287Z,19.20
2022-11-27T09:27:39.290Z,19.25
2022-11-27T09:30:08.874Z,19.30
2022-11-27T09:32:36.561Z,19.31
2022-11-27T09:35:04.444Z,19.35
2022-11-27T09:37:32.249Z,19.42
2022-11-27T09:40:01.530Z,19.51
2022-11-27T09:42:40.940Z,19.57
2022-11-27T09:45:12.066Z,19.65
2022-11-27T09:47:42.114Z,19.69
2022-11-27T09:50:13.684Z,19.76
2022-11-27T09:52:42.824Z,19.83
2022-11-27T09:55:15.436Z,19.88
2022-11-27T09:57:43.065Z,19.91
2022-11-27T10:00:14.411Z,19.93
2022-11-27T10:02:43.032Z,19.97
2022-11-27T10:05:15.303Z,20.02
2022-11-27T10:07:50.766Z,20.06
2022-11-27T10:10:30.356Z,20.11
2022-11-27T10:13:01.526Z,20.14
2022-11-27T10:15:34.319Z,20.17
2022-11-27T10:18:04.037Z,20.21
2022-11-27T10:20:33.415Z,20.29
2022-11-27T10:23:03.227Z,20.34
2022-11-27T10:25:34.901Z,20.35
2022-11-27T10:28:07.440Z,20.40
2022-11-27T10:30:38.499Z,20.44
2022-11-27T10:33:13.259Z,20.46
2022-11-27T10:35:40.896Z,20.51
2022-11-27T10:38:12.000Z,20.52
2022-11-27T10:40:42.817Z,20.51
2022-11-27T10:43:11.830Z,20.54
2022-11-27T10:45:43.701Z,20.55
2022-11-27T10:48:11.537Z,20.54
2022-11-27T10:50:39.213Z,20.57
2022-11-27T10:53:08.244Z,20.58
2022-11-27T10:55:45.375Z,20.59
2022-11-27T10:58:16.969Z,20.61
2022-11-27T11:00:44.836Z,20.62
2022-11-27T11:03:17.132Z,20.64
2022-11-27T11:06:19.522Z,20.66
2022-11-27T11:08:42.742Z,20.67
2022-11-27T11:11:14.160Z,20.68
2022-11-27T11:13:45.912Z,20.66
2022-11-27T11:16:23.370Z,20.68
2022-11-27T11:18:52.873Z,20.71
2022-11-27T11:21:24.477Z,20.72
2022-11-27T11:23:54.460Z,20.66
2022-11-27T11:26:28.116Z,20.54
2022-11-27T11:28:57.041Z,20.46
2022-11-27T11:31:29.973Z,20.44
2022-11-27T11:33:58.934Z,20.46
2022-11-27T11:36:26.601Z,20.48
2022-11-27T11:38:54.309Z,20.51
2022-11-27T11:41:23.710Z,20.51
2022-11-27T11:43:57.148Z,20.50
2022-11-27T11:46:26.153Z,20.52
2022-11-27T11:48:58.744Z,20.53
2022-11-27T11:51:36.066Z,20.55
2022-11-27T11:54:10.714Z,20.60
2022-11-27T11:56:39.692Z,20.61
2022-11-27T11:59:11.685Z,20.63
2022-11-27T12:01:46.536Z,20.64
2022-11-27T12:04:23.714Z,20.65
2022-11-27T12:06:55.901Z,20.64
2022-11-27T12:09:28.531Z,20.65
2022-11-27T12:11:58.716Z,20.64
2022-11-27T12:14:37.400Z,20.61
2022-11-27T12:17:10.232Z,20.24
2022-11-27T12:19:51.613Z,20.20
2022-11-27T12:22:25.448Z,20.18
2022-11-27T12:24:56.767Z,20.17
2022-11-27T12:27:28.496Z,20.21
2022-11-27T12:30:05.165Z,20.22
2022-11-27T12:32:57.476Z,20.24
2022-11-27T12:35:32.116Z,20.25
2022-11-27T12:38:15.385Z,20.26
2022-11-27T12:40:56.507Z,20.29
2022-11-27T12:43:25.480Z,20.31
2022-11-27T12:45:56.773Z,20.33
2022-11-27T12:48:25.493Z,20.29
2022-11-27T12:50:55.237Z,20.30
2022-11-27T12:53:25.440Z,20.33
2022-11-27T12:56:00.225Z,20.36
2022-11-27T12:58:29.553Z,20.38
2022-11-27T13:01:23.643Z,20.40
2022-11-27T13:04:23.297Z,20.39
2022-11-27T13:07:13.073Z,20.40
2022-11-27T13:10:04.345Z,20.39
2022-11-27T13:12:33.656Z,20.40
2022-11-27T13:15:03.306Z,20.41
2022-11-27T13:17:35.176Z,20.40
2022-11-27T13:20:02.804Z,20.40
2022-11-27T13:22:32.065Z,20.41
2022-11-27T13:25:01.581Z,20.42
2022-11-27T13:27:30.048Z,20.41
2022-11-27T13:29:58.740Z,20.43
2022-11-27T13:32:28.761Z,20.45
2022-11-27T13:34:58.638Z,20.48
2022-11-27T13:37:28.838Z,20.50
2022-11-27T13:40:07.055Z,20.54
2022-11-27T13:42:35.719Z,20.56
2022-11-27T13:45:05.810Z,20.56
2022-11-27T13:47:37.547Z,20.52
2022-11-27T13:50:09.097Z,20.51
2022-11-27T13:52:36.962Z,20.54
2022-11-27T13:55:06.233Z,20.54
2022-11-27T13:57:34.275Z,20.59
2022-11-27T14:00:02.694Z,20.61
2022-11-27T14:02:41.534Z,20.64
2022-11-27T14:05:11.160Z,20.62
2022-11-27T14:07:41.166Z,20.61
2022-11-27T14:10:11.353Z,20.62
2022-11-27T14:12:38.980Z,20.61
2022-11-27T14:15:09.863Z,20.61
2022-11-27T14:17:39.463Z,20.60
2022-11-27T14:20:23.878Z,20.58
2022-11-27T14:23:13.244Z,20.56
2022-11-27T14:25:40.820Z,20.57
2022-11-27T14:28:15.712Z,20.54
2022-11-27T14:30:46.885Z,20.54
2022-11-27T14:33:19.082Z,20.52
2022-11-27T14:35:49.264Z,20.50
2022-11-27T14:38:18.262Z,20.47
2022-11-27T14:40:46.222Z,20.45
2022-11-27T14:43:16.304Z,20.41
2022-11-27T14:45:45.814Z,20.39
2022-11-27T14:48:17.028Z,20.35
2022-11-27T14:50:44.606Z,20.31
2022-11-27T14:53:13.843Z,20.28
2022-11-27T14:55:42.914Z,20.26
2022-11-27T14:58:12.402Z,20.24
2022-11-27T15:00:39.981Z,20.19
2022-11-27T15:03:11.574Z,20.16
2022-11-27T15:05:39.442Z,20.16
2022-11-27T15:08:09.790Z,20.14
2022-11-27T15:10:38.148Z,20.16
2022-11-27T15:13:08.165Z,20.18
2022-11-27T15:15:39.291Z,20.21
2022-11-27T15:18:07.853Z,20.23
2022-11-27T15:20:37.485Z,20.26
2022-11-27T15:23:05.188Z,20.28
2022-11-27T15:25:38.040Z,20.32
2022-11-27T15:28:33.567Z,20.35
2022-11-27T15:31:01.201Z,20.38
2022-11-27T15:33:29.511Z,20.40
2022-11-27T15:36:14.083Z,20.43
2022-11-27T15:38:42.101Z,20.47
2022-11-27T15:41:20.026Z,20.49
2022-11-27T15:43:49.032Z,20.52
2022-11-27T15:46:16.756Z,20.56
2022-11-27T15:48:44.423Z,20.59
2022-11-27T15:51:12.324Z,20.62
2022-11-27T15:53:40.049Z,20.64
2022-11-27T15:56:08.305Z,20.65
2022-11-27T15:58:35.971Z,20.68
2022-11-27T16:01:06.328Z,20.70
2022-11-27T16:03:33.972Z,20.71
2022-11-27T16:06:04.501Z,20.72
2022-11-27T16:08:32.160Z,20.73
2022-11-27T16:11:03.053Z,20.75
2022-11-27T16:13:30.768Z,20.76
2022-11-27T16:16:02.198Z,20.77
2022-11-27T16:18:32.167Z,20.78
2022-11-27T16:21:03.485Z,20.79
2022-11-27T16:23:31.343Z,20.78
2022-11-27T16:25:59.210Z,20.78
2022-11-27T16:28:26.864Z,20.77
2022-11-27T16:30:54.738Z,20.76
2022-11-27T16:33:22.433Z,20.77
2022-11-27T16:35:52.319Z,20.77
2022-11-27T16:38:22.113Z,20.79
2022-11-27T16:40:49.791Z,20.81
2022-11-27T16:43:17.404Z,20.81
2022-11-27T16:45:45.040Z,20.82
2022-11-27T16:48:12.750Z,20.85
2022-11-27T16:50:40.487Z,20.85
2022-11-27T16:53:09.592Z,20.83
2022-11-27T16:55:37.299Z,20.80
2022-11-27T16:58:04.908Z,20.77
2022-11-27T17:00:32.464Z,20.75
2022-11-27T17:03:00.105Z,20.72
2022-11-27T17:05:27.765Z,20.69
2022-11-27T17:07:55.583Z,20.67
2022-11-27T17:10:24.578Z,20.66
2022-11-27T17:12:52.224Z,20.63
2022-11-27T17:15:19.829Z,20.62
2022-11-27T17:17:47.404Z,20.58
2022-11-27T17:20:14.991Z,20.54
2022-11-27T17:22:42.599Z,20.51
2022-11-27T17:25:11.045Z,20.49
2022-11-27T17:27:39.927Z,20.46
2022-11-27T17:30:08.967Z,20.41
2022-11-27T17:32:36.575Z,20.40
2022-11-27T17:35:04.258Z,20.38
2022-11-27T17:37:31.819Z,20.35
2022-11-27T17:39:59.440Z,20.32
2022-11-27T17:42:27.132Z,20.30
2022-11-27T17:44:56.364Z,20.28
2022-11-27T17:47:23.964Z,20.25
2022-11-27T17:49:51.672Z,20.25
2022-11-27T17:52:19.422Z,20.23
2022-11-27T17:54:47.076Z,20.21
2022-11-27T17:57:14.639Z,20.19
2022-11-27T17:59:42.413Z,20.15
2022-11-27T18:02:12.509Z,20.15
2022-11-27T18:04:40.156Z,20.17
2022-11-27T18:07:07.823Z,20.19
2022-11-27T18:09:35.391Z,20.21
2022-11-27T18:12:02.993Z,20.24
2022-11-27T18:14:30.586Z,20.27
2022-11-27T18:17:03.984Z,20.28
2022-11-27T18:19:32.946Z,20.32
2022-11-27T18:22:00.842Z,20.35
2022-11-27T18:24:28.521Z,20.38
2022-11-27T18:27:11.567Z,20.39
2022-11-27T18:29:40.093Z,20.43
2022-11-27T18:32:08.093Z,20.44
2022-11-27T18:34:37.053Z,20.47
2022-11-27T18:37:04.941Z,20.50
2022-11-27T18:39:32.626Z,20.51
2022-11-27T18:42:00.203Z,20.52
2022-11-27T18:44:27.798Z,20.53
2022-11-27T18:46:55.591Z,20.54
2022-11-27T18:49:23.733Z,20.55
2022-11-27T18:51:53.080Z,20.56
2022-11-27T18:54:20.690Z,20.57
2022-11-27T18:56:48.264Z,20.57
2022-11-27T18:59:16.527Z,20.59
2022-11-27T19:01:44.114Z,20.57
2022-11-27T19:04:11.885Z,20.59
2022-11-27T19:06:39.720Z,20.57
2022-11-27T19:09:08.694Z,20.55
2022-11-27T19:11:36.321Z,20.53
2022-11-27T19:14:04.536Z,20.51
2022-11-27T19:16:33.057Z,20.51
2022-11-27T19:19:01.263Z,20.50
2022-11-27T19:21:29.568Z,20.52
2022-11-27T19:23:57.755Z,20.53
2022-11-27T19:26:27.839Z,20.52
2022-11-27T19:28:56.830Z,20.53
2022-11-27T19:31:24.935Z,20.53
2022-11-27T19:33:53.124Z,20.54
2022-11-27T19:36:20.764Z,20.55
2022-11-27T19:38:48.417Z,20.58
2022-11-27T19:41:17.072Z,20.57
2022-11-27T19:43:47.197Z,20.59
2022-11-27T19:46:16.225Z,20.61
2022-11-27T19:48:44.079Z,20.61
2022-11-27T19:51:12.096Z,20.63
2022-11-27T19:53:39.945Z,20.63
2022-11-27T19:56:10.893Z,20.65
2022-11-27T19:58:38.653Z,20.66
2022-11-27T20:01:08.596Z,20.68
2022-11-27T20:03:36.810Z,20.69
2022-11-27T20:06:05.851Z,20.69
2022-11-27T20:08:33.491Z,20.69
2022-11-27T20:11:01.129Z,20.71
2022-11-27T20:13:28.739Z,20.72
2022-11-27T20:15:56.495Z,20.74
2022-11-27T20:18:26.351Z,20.75
2022-11-27T20:20:53.952Z,20.75
2022-11-27T20:23:21.598Z,20.77
2022-11-27T20:25:50.452Z,20.74
2022-11-27T20:28:18.092Z,20.72
2022-11-27T20:30:45.787Z,20.72
2022-11-27T20:33:17.445Z,20.69
2022-11-27T20:35:46.590Z,20.68
2022-11-27T20:38:14.203Z,20.69
2022-11-27T20:40:41.736Z,20.68
2022-11-27T20:43:09.584Z,20.68
2022-11-27T20:45:37.812Z,20.67
2022-11-27T20:48:05.876Z,20.68
2022-11-27T20:50:33.487Z,20.68
2022-11-27T20:53:02.450Z,20.67
2022-11-27T20:55:30.566Z,20.67
2022-11-27T20:57:58.148Z,20.67
2022-11-27T21:00:25.840Z,20.65
2022-11-27T21:02:53.457Z,20.64
2022-11-27T21:05:21.471Z,20.60
2022-11-27T21:07:49.144Z,20.57
2022-11-27T21:10:20.013Z,20.56
2022-11-27T21:12:47.647Z,20.51
2022-11-27T21:15:15.304Z,20.47
2022-11-27T21:17:43.293Z,20.43
2022-11-27T21:20:11.652Z,20.40
2022-11-27T21:22:42.495Z,20.36
2022-11-27T21:25:10.182Z,20.33
2022-11-27T21:27:39.455Z,20.28
2022-11-27T21:30:08.455Z,20.25
2022-11-27T21:32:36.176Z,20.22
2022-11-27T21:35:04.069Z,20.19
2022-11-27T21:37:31.693Z,20.16
2022-11-27T21:39:59.392Z,20.14
2022-11-27T21:42:29.127Z,20.12
2022-11-27T21:44:58.315Z,20.09
2022-11-27T21:47:25.947Z,20.07
2022-11-27T21:49:53.529Z,20.04
2022-11-27T21:52:21.160Z,20.01
2022-11-27T21:54:48.803Z,20.00
2022-11-27T21:57:17.165Z,19.98
2022-11-27T21:59:44.794Z,19.95
2022-11-27T22:02:14.209Z,19.93
2022-11-27T22:04:43.161Z,19.91
2022-11-27T22:07:11.048Z,19.89
2022-11-27T22:09:38.655Z,19.87
2022-11-27T22:12:06.980Z,19.85
2022-11-27T22:14:34.715Z,19.83
2022-11-27T22:17:02.414Z,19.82
2022-11-27T22:19:31.435Z,19.81
2022-11-27T22:21:59.109Z,19.79
2022-11-27T22:24:26.727Z,19.77
2022-11-27T22:26:54.308Z,19.77
2022-11-27T22:29:22.023Z,19.76
2022-11-27T22:31:49.597Z,19.74
2022-11-27T22:34:17.277Z,19.72
2022-11-27T22:36:46.210Z,19.71
2022-11-27T22:39:13.824Z,19.71
2022-11-27T22:41:41.563Z,19.69
2022-11-27T22:44:09.571Z,19.68
2022-11-27T22:46:37.380Z,19.68
2022-11-27T22:49:06.284Z,19.67
2022-11-27T22:51:34.716Z,19.67
2022-11-27T22:54:03.825Z,19.65
2022-11-27T22:56:33.536Z,19.64
2022-11-27T22:59:24.773Z,19.64
2022-11-27T23:01:49.469Z,19.65
2022-11-27T23:04:17.200Z,19.63
2022-11-27T23:06:47.835Z,19.63
2022-11-27T23:09:17.704Z,19.62
2022-11-27T23:11:45.389Z,19.59
2022-11-27T23:14:13.460Z,19.60
2022-11-27T23:16:41.213Z,19.60
2022-11-27T23:19:08.887Z,19.60
2022-11-27T23:21:38.549Z,19.60
2022-11-27T23:24:06.590Z,19.59
2022-11-27T23:26:35.634Z,19.59
2022-11-27T23:29:03.408Z,19.59
2022-11-27T23:31:32.404Z,19.57
2022-11-27T23:34:01.270Z,19.58
2022-11-27T23:36:28.975Z,19.57
2022-11-27T23:38:56.565Z,19.56
2022-11-27T23:41:25.301Z,19.56
2022-11-27T23:43:54.501Z,19.56
2022-11-27T23:46:23.523Z,19.55
2022-11-27T23:48:51.204Z,19.56
2022-11-27T23:51:19.973Z,19.55
2022-11-27T23:53:47.882Z,19.55
2022-11-27T23:56:16.450Z,19.54
2022-11-27T23:58:47.378Z,19.54
